sensor_id;sensor_type;location;lat;lon;timestamp;P1;durP1;ratioP1;P2;durP2;ratioP2
72974;SDS011;61166;54.228;37.632;2023-01-09T00:01:25;7.65;;;2.78;;
72974;SDS011;61166;54.228;37.632;2023-01-09T00:03:55;7.85;;;3.85;;
72974;SDS011;61166;54.228;37.632;2023-01-09T00:06:22;4.18;;;2.50;;
72974;SDS011;61166;54.228;37.632;2023-01-09T00:08:49;19.15;;;7.35;;
72974;SDS011;61166;54.228;37.632;2023-01-09T00:11:15;26.48;;;6.38;;
72974;SDS011;61166;54.228;37.632;2023-01-09T00:13:42;18.57;;;6.20;;
72974;SDS011;61166;54.228;37.632;2023-01-09T00:16:08;12.60;;;4.00;;
72974;SDS011;61166;54.228;37.632;2023-01-09T00:18:35;2.83;;;1.33;;
72974;SDS011;61166;54.228;37.632;2023-01-09T00:21:03;6.97;;;2.45;;
72974;SDS011;61166;54.228;37.632;2023-01-09T00:23:31;9.70;;;2.47;;
72974;SDS011;61166;54.228;37.632;2023-01-09T00:26:05;8.13;;;2.60;;
72974;SDS011;61166;54.228;37.632;2023-01-09T00:28:34;5.28;;;2.75;;
72974;SDS011;61166;54.228;37.632;2023-01-09T00:31:01;4.67;;;1.57;;
72974;SDS011;61166;54.228;37.632;2023-01-09T00:33:30;7.75;;;2.80;;
72974;SDS011;61166;54.228;37.632;2023-01-09T00:35:59;5.38;;;1.20;;
72974;SDS011;61166;54.228;37.632;2023-01-09T00:38:26;1.88;;;1.23;;
72974;SDS011;61166;54.228;37.632;2023-01-09T00:40:53;10.57;;;2.10;;
72974;SDS011;61166;54.228;37.632;2023-01-09T00:43:21;7.45;;;2.80;;
72974;SDS011;61166;54.228;37.632;2023-01-09T00:45:52;4.22;;;1.27;;
72974;SDS011;61166;54.228;37.632;2023-01-09T00:48:19;2.63;;;1.70;;
72974;SDS011;61166;54.228;37.632;2023-01-09T00:50:48;12.80;;;5.00;;
72974;SDS011;61166;54.228;37.632;2023-01-09T00:53:15;1.95;;;0.95;;
72974;SDS011;61166;54.228;37.632;2023-01-09T00:55:45;3.33;;;0.75;;
72974;SDS011;61166;54.228;37.632;2023-01-09T00:58:11;13.32;;;5.07;;
72974;SDS011;61166;54.228;37.632;2023-01-09T01:00:38;11.65;;;4.43;;
72974;SDS011;61166;54.228;37.632;2023-01-09T01:03:05;1.35;;;0.65;;
72974;SDS011;61166;54.228;37.632;2023-01-09T01:05:31;5.33;;;1.97;;
72974;SDS011;61166;54.228;37.632;2023-01-09T01:07:58;4.53;;;1.88;;
72974;SDS011;61166;54.228;37.632;2023-01-09T01:10:25;7.18;;;1.95;;
72974;SDS011;61166;54.228;37.632;2023-01-09T01:12:53;9.90;;;1.83;;
72974;SDS011;61166;54.228;37.632;2023-01-09T01:15:19;3.67;;;1.17;;
72974;SDS011;61166;54.228;37.632;2023-01-09T01:17:46;15.25;;;3.35;;
72974;SDS011;61166;54.228;37.632;2023-01-09T01:20:15;8.48;;;3.40;;
72974;SDS011;61166;54.228;37.632;2023-01-09T01:22:43;4.90;;;1.63;;
72974;SDS011;61166;54.228;37.632;2023-01-09T01:25:11;10.48;;;3.92;;
72974;SDS011;61166;54.228;37.632;2023-01-09T01:27:39;7.93;;;3.22;;
72974;SDS011;61166;54.228;37.632;2023-01-09T01:30:06;5.80;;;3.00;;
72974;SDS011;61166;54.228;37.632;2023-01-09T01:32:34;6.45;;;1.55;;
72974;SDS011;61166;54.228;37.632;2023-01-09T01:35:01;9.18;;;2.65;;
72974;SDS011;61166;54.228;37.632;2023-01-09T01:37:29;1.07;;;0.10;;
72974;SDS011;61166;54.228;37.632;2023-01-09T01:39:55;1.30;;;0.90;;
72974;SDS011;61166;54.228;37.632;2023-01-09T01:42:22;8.30;;;3.95;;
72974;SDS011;61166;54.228;37.632;2023-01-09T01:44:56;1.45;;;0.93;;
72974;SDS011;61166;54.228;37.632;2023-01-09T01:47:33;11.85;;;3.28;;
72974;SDS011;61166;54.228;37.632;2023-01-09T01:50:02;14.05;;;4.18;;
72974;SDS011;61166;54.228;37.632;2023-01-09T01:52:32;12.18;;;4.22;;
72974;SDS011;61166;54.228;37.632;2023-01-09T01:55:02;12.70;;;5.50;;
72974;SDS011;61166;54.228;37.632;2023-01-09T01:57:32;10.18;;;4.40;;
72974;SDS011;61166;54.228;37.632;2023-01-09T02:00:00;15.98;;;5.82;;
72974;SDS011;61166;54.228;37.632;2023-01-09T02:02:28;12.80;;;3.70;;
72974;SDS011;61166;54.228;37.632;2023-01-09T02:04:57;3.92;;;1.25;;
72974;SDS011;61166;54.228;37.632;2023-01-09T02:07:25;3.45;;;1.67;;
72974;SDS011;61166;54.228;37.632;2023-01-09T02:09:51;17.02;;;5.00;;
72974;SDS011;61166;54.228;37.632;2023-01-09T02:12:20;14.23;;;4.20;;
72974;SDS011;61166;54.228;37.632;2023-01-09T02:14:50;6.13;;;5.47;;
72974;SDS011;61166;54.228;37.632;2023-01-09T02:20:38;1.33;;;0.87;;
72974;SDS011;61166;54.228;37.632;2023-01-09T02:23:23;5.72;;;2.97;;
72974;SDS011;61166;54.228;37.632;2023-01-09T02:34:31;9.68;;;3.72;;
72974;SDS011;61166;54.228;37.632;2023-01-09T02:37:36;13.45;;;3.80;;
72974;SDS011;61166;54.228;37.632;2023-01-09T02:42:40;9.10;;;2.47;;
72974;SDS011;61166;54.228;37.632;2023-01-09T02:45:08;8.68;;;2.70;;
72974;SDS011;61166;54.228;37.632;2023-01-09T02:50:05;6.22;;;1.92;;
72974;SDS011;61166;54.228;37.632;2023-01-09T02:59:04;16.77;;;5.22;;
72974;SDS011;61166;54.228;37.632;2023-01-09T03:01:41;20.77;;;6.85;;
72974;SDS011;61166;54.228;37.632;2023-01-09T03:04:25;8.00;;;2.50;;
72974;SDS011;61166;54.228;37.632;2023-01-09T03:09:42;5.32;;;2.28;;
72974;SDS011;61166;54.228;37.632;2023-01-09T03:12:16;11.02;;;3.60;;
72974;SDS011;61166;54.228;37.632;2023-01-09T03:14:49;3.43;;;1.43;;
72974;SDS011;61166;54.228;37.632;2023-01-09T03:17:23;6.70;;;1.92;;
72974;SDS011;61166;54.228;37.632;2023-01-09T03:19:55;11.68;;;3.25;;
72974;SDS011;61166;54.228;37.632;2023-01-09T03:22:22;7.47;;;2.77;;
72974;SDS011;61166;54.228;37.632;2023-01-09T03:24:49;4.30;;;1.45;;
72974;SDS011;61166;54.228;37.632;2023-01-09T03:27:16;3.22;;;1.08;;
72974;SDS011;61166;54.228;37.632;2023-01-09T03:29:43;2.25;;;1.23;;
72974;SDS011;61166;54.228;37.632;2023-01-09T03:32:09;7.80;;;2.75;;
72974;SDS011;61166;54.228;37.632;2023-01-09T03:34:36;6.45;;;3.22;;
72974;SDS011;61166;54.228;37.632;2023-01-09T03:37:03;3.63;;;1.60;;
72974;SDS011;61166;54.228;37.632;2023-01-09T03:39:30;3.00;;;0.80;;
72974;SDS011;61166;54.228;37.632;2023-01-09T03:41:57;16.90;;;5.60;;
72974;SDS011;61166;54.228;37.632;2023-01-09T03:44:24;19.30;;;6.32;;
72974;SDS011;61166;54.228;37.632;2023-01-09T03:46:50;5.87;;;1.73;;
72974;SDS011;61166;54.228;37.632;2023-01-09T03:49:17;25.65;;;7.85;;
72974;SDS011;61166;54.228;37.632;2023-01-09T03:51:43;5.18;;;1.85;;
72974;SDS011;61166;54.228;37.632;2023-01-09T03:54:10;7.18;;;1.67;;
72974;SDS011;61166;54.228;37.632;2023-01-09T03:56:37;5.50;;;2.47;;
72974;SDS011;61166;54.228;37.632;2023-01-09T03:59:03;12.60;;;3.08;;
72974;SDS011;61166;54.228;37.632;2023-01-09T04:01:30;15.15;;;4.30;;
72974;SDS011;61166;54.228;37.632;2023-01-09T04:03:56;29.70;;;9.07;;
72974;SDS011;61166;54.228;37.632;2023-01-09T04:06:23;9.70;;;4.13;;
72974;SDS011;61166;54.228;37.632;2023-01-09T04:08:50;7.35;;;2.30;;
72974;SDS011;61166;54.228;37.632;2023-01-09T04:11:16;13.90;;;3.53;;
72974;SDS011;61166;54.228;37.632;2023-01-09T04:13:43;20.45;;;6.93;;
72974;SDS011;61166;54.228;37.632;2023-01-09T04:16:10;11.20;;;1.98;;
72974;SDS011;61166;54.228;37.632;2023-01-09T04:18:36;8.35;;;2.83;;
72974;SDS011;61166;54.228;37.632;2023-01-09T04:21:03;10.23;;;3.20;;
72974;SDS011;61166;54.228;37.632;2023-01-09T04:23:29;5.35;;;1.75;;
72974;SDS011;61166;54.228;37.632;2023-01-09T04:25:56;4.10;;;1.92;;
72974;SDS011;61166;54.228;37.632;2023-01-09T04:28:23;4.93;;;2.23;;
72974;SDS011;61166;54.228;37.632;2023-01-09T04:30:49;9.05;;;2.58;;
72974;SDS011;61166;54.228;37.632;2023-01-09T04:33:16;19.98;;;6.90;;
72974;SDS011;61166;54.228;37.632;2023-01-09T04:35:42;13.13;;;4.45;;
72974;SDS011;61166;54.228;37.632;2023-01-09T04:38:09;7.22;;;4.47;;
72974;SDS011;61166;54.228;37.632;2023-01-09T04:40:35;3.83;;;1.48;;
72974;SDS011;61166;54.228;37.632;2023-01-09T04:43:02;16.92;;;5.53;;
72974;SDS011;61166;54.228;37.632;2023-01-09T04:45:29;17.53;;;5.77;;
72974;SDS011;61166;54.228;37.632;2023-01-09T04:47:56;12.90;;;6.30;;
72974;SDS011;61166;54.228;37.632;2023-01-09T04:50:22;12.43;;;4.45;;
72974;SDS011;61166;54.228;37.632;2023-01-09T04:52:49;13.15;;;3.80;;
72974;SDS011;61166;54.228;37.632;2023-01-09T04:55:15;8.30;;;2.92;;
72974;SDS011;61166;54.228;37.632;2023-01-09T04:57:42;7.38;;;2.83;;
72974;SDS011;61166;54.228;37.632;2023-01-09T05:00:08;8.82;;;3.95;;
72974;SDS011;61166;54.228;37.632;2023-01-09T05:02:36;4.70;;;2.10;;
72974;SDS011;61166;54.228;37.632;2023-01-09T05:05:04;5.32;;;2.13;;
72974;SDS011;61166;54.228;37.632;2023-01-09T05:07:31;13.07;;;3.47;;
72974;SDS011;61166;54.228;37.632;2023-01-09T05:09:58;8.88;;;2.97;;
72974;SDS011;61166;54.228;37.632;2023-01-09T05:12:25;17.58;;;6.25;;
72974;SDS011;61166;54.228;37.632;2023-01-09T05:14:51;21.63;;;8.88;;
72974;SDS011;61166;54.228;37.632;2023-01-09T05:17:18;16.40;;;5.88;;
72974;SDS011;61166;54.228;37.632;2023-01-09T05:19:45;8.30;;;2.03;;
72974;SDS011;61166;54.228;37.632;2023-01-09T05:22:11;13.10;;;3.20;;
72974;SDS011;61166;54.228;37.632;2023-01-09T05:24:38;33.72;;;10.30;;
72974;SDS011;61166;54.228;37.632;2023-01-09T05:27:05;27.63;;;10.25;;
72974;SDS011;61166;54.228;37.632;2023-01-09T05:29:31;30.02;;;11.25;;
72974;SDS011;61166;54.228;37.632;2023-01-09T05:31:58;30.02;;;10.27;;
72974;SDS011;61166;54.228;37.632;2023-01-09T05:34:24;7.85;;;3.35;;
72974;SDS011;61166;54.228;37.632;2023-01-09T05:36:51;12.47;;;5.03;;
72974;SDS011;61166;54.228;37.632;2023-01-09T05:39:17;28.52;;;9.43;;
72974;SDS011;61166;54.228;37.632;2023-01-09T05:41:44;26.05;;;10.27;;
72974;SDS011;61166;54.228;37.632;2023-01-09T05:44:11;30.83;;;11.57;;
72974;SDS011;61166;54.228;37.632;2023-01-09T05:46:38;9.00;;;3.60;;
72974;SDS011;61166;54.228;37.632;2023-01-09T05:49:04;41.03;;;16.67;;
72974;SDS011;61166;54.228;37.632;2023-01-09T05:51:31;43.00;;;16.00;;
72974;SDS011;61166;54.228;37.632;2023-01-09T05:53:58;40.90;;;17.20;;
72974;SDS011;61166;54.228;37.632;2023-01-09T05:56:25;15.48;;;5.80;;
72974;SDS011;61166;54.228;37.632;2023-01-09T05:58:51;27.40;;;7.25;;
72974;SDS011;61166;54.228;37.632;2023-01-09T06:01:18;26.60;;;10.77;;
72974;SDS011;61166;54.228;37.632;2023-01-09T06:03:47;42.65;;;13.95;;
72974;SDS011;61166;54.228;37.632;2023-01-09T06:06:13;23.38;;;7.13;;
72974;SDS011;61166;54.228;37.632;2023-01-09T06:08:40;38.25;;;15.20;;
72974;SDS011;61166;54.228;37.632;2023-01-09T06:11:07;14.77;;;5.20;;
72974;SDS011;61166;54.228;37.632;2023-01-09T06:13:34;37.72;;;14.20;;
72974;SDS011;61166;54.228;37.632;2023-01-09T06:16:00;12.40;;;4.55;;
72974;SDS011;61166;54.228;37.632;2023-01-09T06:18:27;13.93;;;6.17;;
72974;SDS011;61166;54.228;37.632;2023-01-09T06:20:53;24.70;;;10.68;;
72974;SDS011;61166;54.228;37.632;2023-01-09T06:23:20;37.00;;;13.32;;
72974;SDS011;61166;54.228;37.632;2023-01-09T06:25:46;23.60;;;8.53;;
72974;SDS011;61166;54.228;37.632;2023-01-09T06:28:13;28.92;;;11.20;;
72974;SDS011;61166;54.228;37.632;2023-01-09T06:30:39;23.42;;;5.38;;
72974;SDS011;61166;54.228;37.632;2023-01-09T06:33:06;15.23;;;5.85;;
72974;SDS011;61166;54.228;37.632;2023-01-09T06:35:32;23.93;;;8.70;;
72974;SDS011;61166;54.228;37.632;2023-01-09T06:37:59;16.50;;;7.45;;
72974;SDS011;61166;54.228;37.632;2023-01-09T06:40:27;29.90;;;9.63;;
72974;SDS011;61166;54.228;37.632;2023-01-09T06:42:53;28.85;;;10.07;;
72974;SDS011;61166;54.228;37.632;2023-01-09T06:45:20;30.30;;;13.85;;
72974;SDS011;61166;54.228;37.632;2023-01-09T06:47:47;15.30;;;5.93;;
72974;SDS011;61166;54.228;37.632;2023-01-09T06:50:13;9.30;;;4.50;;
72974;SDS011;61166;54.228;37.632;2023-01-09T06:52:40;25.52;;;10.38;;
72974;SDS011;61166;54.228;37.632;2023-01-09T06:55:06;24.38;;;9.48;;
72974;SDS011;61166;54.228;37.632;2023-01-09T06:57:33;15.43;;;6.13;;
72974;SDS011;61166;54.228;37.632;2023-01-09T07:00:00;22.40;;;9.53;;
72974;SDS011;61166;54.228;37.632;2023-01-09T07:02:27;28.60;;;11.93;;
72974;SDS011;61166;54.228;37.632;2023-01-09T07:04:54;32.20;;;12.20;;
72974;SDS011;61166;54.228;37.632;2023-01-09T07:07:20;23.33;;;9.18;;
72974;SDS011;61166;54.228;37.632;2023-01-09T07:09:47;16.25;;;7.53;;
72974;SDS011;61166;54.228;37.632;2023-01-09T07:12:15;25.90;;;10.70;;
72974;SDS011;61166;54.228;37.632;2023-01-09T07:14:41;23.48;;;8.27;;
72974;SDS011;61166;54.228;37.632;2023-01-09T07:17:11;19.23;;;8.20;;
72974;SDS011;61166;54.228;37.632;2023-01-09T07:19:38;19.70;;;9.13;;
72974;SDS011;61166;54.228;37.632;2023-01-09T07:22:07;17.40;;;7.28;;
72974;SDS011;61166;54.228;37.632;2023-01-09T07:24:36;21.17;;;8.53;;
72974;SDS011;61166;54.228;37.632;2023-01-09T07:27:03;15.25;;;6.80;;
72974;SDS011;61166;54.228;37.632;2023-01-09T07:29:29;21.10;;;9.90;;
72974;SDS011;61166;54.228;37.632;2023-01-09T07:31:56;23.83;;;9.40;;
72974;SDS011;61166;54.228;37.632;2023-01-09T07:34:23;19.85;;;8.90;;
72974;SDS011;61166;54.228;37.632;2023-01-09T07:36:49;30.73;;;13.37;;
72974;SDS011;61166;54.228;37.632;2023-01-09T07:39:16;19.80;;;8.63;;
72974;SDS011;61166;54.228;37.632;2023-01-09T07:41:42;21.48;;;9.02;;
72974;SDS011;61166;54.228;37.632;2023-01-09T07:44:09;18.17;;;9.02;;
72974;SDS011;61166;54.228;37.632;2023-01-09T07:46:36;22.38;;;9.98;;
72974;SDS011;61166;54.228;37.632;2023-01-09T07:49:03;23.20;;;8.47;;
72974;SDS011;61166;54.228;37.632;2023-01-09T07:51:30;32.30;;;13.38;;
72974;SDS011;61166;54.228;37.632;2023-01-09T07:53:57;12.20;;;5.65;;
72974;SDS011;61166;54.228;37.632;2023-01-09T07:56:23;20.27;;;9.35;;
72974;SDS011;61166;54.228;37.632;2023-01-09T07:58:50;22.33;;;9.20;;
72974;SDS011;61166;54.228;37.632;2023-01-09T08:01:16;25.20;;;10.80;;
72974;SDS011;61166;54.228;37.632;2023-01-09T08:03:43;22.70;;;9.50;;
72974;SDS011;61166;54.228;37.632;2023-01-09T08:06:10;20.52;;;9.15;;
72974;SDS011;61166;54.228;37.632;2023-01-09T08:08:36;27.77;;;10.77;;
72974;SDS011;61166;54.228;37.632;2023-01-09T08:11:03;20.92;;;9.75;;
72974;SDS011;61166;54.228;37.632;2023-01-09T08:13:29;20.73;;;8.47;;
72974;SDS011;61166;54.228;37.632;2023-01-09T08:15:56;22.00;;;9.70;;
72974;SDS011;61166;54.228;37.632;2023-01-09T08:18:22;16.45;;;7.38;;
72974;SDS011;61166;54.228;37.632;2023-01-09T08:20:49;19.52;;;8.52;;
72974;SDS011;61166;54.228;37.632;2023-01-09T08:23:16;19.92;;;9.13;;
72974;SDS011;61166;54.228;37.632;2023-01-09T08:25:43;15.83;;;8.00;;
72974;SDS011;61166;54.228;37.632;2023-01-09T08:28:09;17.30;;;7.70;;
72974;SDS011;61166;54.228;37.632;2023-01-09T08:30:36;17.35;;;8.27;;
72974;SDS011;61166;54.228;37.632;2023-01-09T08:33:03;19.30;;;8.85;;
72974;SDS011;61166;54.228;37.632;2023-01-09T08:35:30;20.83;;;10.77;;
72974;SDS011;61166;54.228;37.632;2023-01-09T08:37:56;15.70;;;7.60;;
72974;SDS011;61166;54.228;37.632;2023-01-09T08:40:25;19.75;;;9.25;;
72974;SDS011;61166;54.228;37.632;2023-01-09T08:42:52;22.55;;;9.63;;
72974;SDS011;61166;54.228;37.632;2023-01-09T08:45:18;27.20;;;13.32;;
72974;SDS011;61166;54.228;37.632;2023-01-09T08:47:45;27.50;;;11.13;;
72974;SDS011;61166;54.228;37.632;2023-01-09T08:50:12;17.10;;;6.37;;
72974;SDS011;61166;54.228;37.632;2023-01-09T08:52:38;20.83;;;9.48;;
72974;SDS011;61166;54.228;37.632;2023-01-09T08:55:05;26.15;;;11.07;;
72974;SDS011;61166;54.228;37.632;2023-01-09T08:57:32;24.63;;;8.75;;
72974;SDS011;61166;54.228;37.632;2023-01-09T08:59:58;24.15;;;11.02;;
72974;SDS011;61166;54.228;37.632;2023-01-09T09:02:25;26.23;;;12.40;;
72974;SDS011;61166;54.228;37.632;2023-01-09T09:04:52;19.45;;;8.70;;
72974;SDS011;61166;54.228;37.632;2023-01-09T09:07:19;20.63;;;9.75;;
72974;SDS011;61166;54.228;37.632;2023-01-09T09:09:45;27.63;;;12.43;;
72974;SDS011;61166;54.228;37.632;2023-01-09T09:12:12;33.00;;;13.88;;
72974;SDS011;61166;54.228;37.632;2023-01-09T09:14:39;18.23;;;8.40;;
72974;SDS011;61166;54.228;37.632;2023-01-09T09:17:05;18.42;;;8.13;;
72974;SDS011;61166;54.228;37.632;2023-01-09T09:19:32;21.85;;;9.85;;
72974;SDS011;61166;54.228;37.632;2023-01-09T09:21:58;19.02;;;7.55;;
72974;SDS011;61166;54.228;37.632;2023-01-09T09:24:25;30.08;;;14.02;;
72974;SDS011;61166;54.228;37.632;2023-01-09T09:26:51;19.23;;;9.37;;
72974;SDS011;61166;54.228;37.632;2023-01-09T09:29:18;17.77;;;8.82;;
72974;SDS011;61166;54.228;37.632;2023-01-09T09:31:44;19.08;;;10.00;;
72974;SDS011;61166;54.228;37.632;2023-01-09T09:34:12;16.63;;;7.88;;
72974;SDS011;61166;54.228;37.632;2023-01-09T09:36:39;19.65;;;9.13;;
72974;SDS011;61166;54.228;37.632;2023-01-09T09:39:06;22.77;;;9.47;;
72974;SDS011;61166;54.228;37.632;2023-01-09T09:52:29;20.93;;;7.97;;
72974;SDS011;61166;54.228;37.632;2023-01-09T09:55:01;30.90;;;10.68;;
72974;SDS011;61166;54.228;37.632;2023-01-09T09:57:39;28.23;;;9.00;;
72974;SDS011;61166;54.228;37.632;2023-01-09T10:00:06;17.52;;;7.13;;
72974;SDS011;61166;54.228;37.632;2023-01-09T10:05:26;19.37;;;7.17;;
72974;SDS011;61166;54.228;37.632;2023-01-09T10:07:56;16.95;;;5.50;;
72974;SDS011;61166;54.228;37.632;2023-01-09T10:10:42;21.10;;;8.63;;
72974;SDS011;61166;54.228;37.632;2023-01-09T10:13:21;30.02;;;12.00;;
72974;SDS011;61166;54.228;37.632;2023-01-09T10:16:34;18.52;;;7.53;;
72974;SDS011;61166;54.228;37.632;2023-01-09T10:24:15;22.60;;;9.73;;
72974;SDS011;61166;54.228;37.632;2023-01-09T10:26:52;17.33;;;5.53;;
72974;SDS011;61166;54.228;37.632;2023-01-09T10:32:25;29.93;;;15.17;;
72974;SDS011;61166;54.228;37.632;2023-01-09T10:38:12;32.25;;;11.88;;
72974;SDS011;61166;54.228;37.632;2023-01-09T10:41:07;21.48;;;8.68;;
72974;SDS011;61166;54.228;37.632;2023-01-09T10:43:41;11.32;;;4.60;;
72974;SDS011;61166;54.228;37.632;2023-01-09T10:46:17;15.17;;;4.77;;
72974;SDS011;61166;54.228;37.632;2023-01-09T10:48:49;14.68;;;4.53;;
72974;SDS011;61166;54.228;37.632;2023-01-09T10:54:15;18.88;;;8.45;;
72974;SDS011;61166;54.228;37.632;2023-01-09T10:56:44;22.33;;;9.73;;
72974;SDS011;61166;54.228;37.632;2023-01-09T10:59:19;20.47;;;8.20;;
72974;SDS011;61166;54.228;37.632;2023-01-09T11:01:46;17.08;;;7.40;;
72974;SDS011;61166;54.228;37.632;2023-01-09T11:04:23;20.45;;;8.85;;
72974;SDS011;61166;54.228;37.632;2023-01-09T11:06:54;25.23;;;10.75;;
72974;SDS011;61166;54.228;37.632;2023-01-09T11:09:24;23.33;;;7.35;;
72974;SDS011;61166;54.228;37.632;2023-01-09T11:11:51;16.17;;;8.60;;
72974;SDS011;61166;54.228;37.632;2023-01-09T11:14:27;21.10;;;8.55;;
72974;SDS011;61166;54.228;37.632;2023-01-09T11:16:54;15.50;;;6.47;;
72974;SDS011;61166;54.228;37.632;2023-01-09T11:19:25;12.00;;;6.03;;
72974;SDS011;61166;54.228;37.632;2023-01-09T11:22:35;17.45;;;6.53;;
72974;SDS011;61166;54.228;37.632;2023-01-09T11:24:43;14.03;;;6.17;;
72974;SDS011;61166;54.228;37.632;2023-01-09T11:29:40;17.17;;;6.70;;
72974;SDS011;61166;54.228;37.632;2023-01-09T11:32:21;12.52;;;5.38;;
72974;SDS011;61166;54.228;37.632;2023-01-09T11:34:49;17.55;;;7.82;;
72974;SDS011;61166;54.228;37.632;2023-01-09T11:37:28;23.87;;;10.50;;
72974;SDS011;61166;54.228;37.632;2023-01-09T11:39:57;15.45;;;6.85;;
72974;SDS011;61166;54.228;37.632;2023-01-09T11:42:27;23.08;;;9.00;;
72974;SDS011;61166;54.228;37.632;2023-01-09T11:44:57;18.38;;;9.25;;
72974;SDS011;61166;54.228;37.632;2023-01-09T11:47:33;15.57;;;6.70;;
72974;SDS011;61166;54.228;37.632;2023-01-09T11:50:17;14.40;;;6.23;;
72974;SDS011;61166;54.228;37.632;2023-01-09T11:52:44;16.98;;;6.45;;
72974;SDS011;61166;54.228;37.632;2023-01-09T11:55:13;18.42;;;8.02;;
72974;SDS011;61166;54.228;37.632;2023-01-09T11:57:44;19.65;;;6.50;;
72974;SDS011;61166;54.228;37.632;2023-01-09T12:00:29;12.13;;;5.43;;
72974;SDS011;61166;54.228;37.632;2023-01-09T12:11:10;18.95;;;7.85;;
72974;SDS011;61166;54.228;37.632;2023-01-09T12:13:55;12.40;;;5.17;;
72974;SDS011;61166;54.228;37.632;2023-01-09T12:22:21;29.05;;;12.07;;
72974;SDS011;61166;54.228;37.632;2023-01-09T12:27:50;19.60;;;8.23;;
72974;SDS011;61166;54.228;37.632;2023-01-09T12:33:36;32.72;;;15.05;;
72974;SDS011;61166;54.228;37.632;2023-01-09T12:36:17;25.05;;;9.93;;
72974;SDS011;61166;54.228;37.632;2023-01-09T12:52:38;13.55;;;7.00;;
72974;SDS011;61166;54.228;37.632;2023-01-09T12:55:19;15.30;;;6.43;;
72974;SDS011;61166;54.228;37.632;2023-01-09T12:57:49;26.08;;;9.30;;
72974;SDS011;61166;54.228;37.632;2023-01-09T13:00:21;19.48;;;5.97;;
72974;SDS011;61166;54.228;37.632;2023-01-09T13:02:52;20.05;;;8.15;;
72974;SDS011;61166;54.228;37.632;2023-01-09T13:05:48;21.85;;;9.05;;
72974;SDS011;61166;54.228;37.632;2023-01-09T13:10:51;31.33;;;12.30;;
72974;SDS011;61166;54.228;37.632;2023-01-09T13:13:27;14.60;;;6.57;;
72974;SDS011;61166;54.228;37.632;2023-01-09T13:16:00;24.67;;;9.88;;
72974;SDS011;61166;54.228;37.632;2023-01-09T13:18:34;18.63;;;7.73;;
72974;SDS011;61166;54.228;37.632;2023-01-09T13:21:08;18.02;;;8.45;;
72974;SDS011;61166;54.228;37.632;2023-01-09T13:23:51;23.67;;;10.60;;
72974;SDS011;61166;54.228;37.632;2023-01-09T13:26:29;23.83;;;10.43;;
72974;SDS011;61166;54.228;37.632;2023-01-09T13:29:13;25.05;;;11.65;;
72974;SDS011;61166;54.228;37.632;2023-01-09T13:34:49;34.78;;;14.50;;
72974;SDS011;61166;54.228;37.632;2023-01-09T13:37:19;31.08;;;14.68;;
72974;SDS011;61166;54.228;37.632;2023-01-09T13:39:59;37.25;;;15.77;;
72974;SDS011;61166;54.228;37.632;2023-01-09T13:42:28;35.27;;;14.97;;
72974;SDS011;61166;54.228;37.632;2023-01-09T13:44:55;25.45;;;11.63;;
72974;SDS011;61166;54.228;37.632;2023-01-09T13:47:44;25.20;;;10.63;;
72974;SDS011;61166;54.228;37.632;2023-01-09T13:50:21;35.28;;;14.77;;
72974;SDS011;61166;54.228;37.632;2023-01-09T13:52:51;28.73;;;13.98;;
72974;SDS011;61166;54.228;37.632;2023-01-09T13:58:12;33.40;;;12.82;;
72974;SDS011;61166;54.228;37.632;2023-01-09T14:08:10;21.85;;;9.40;;
72974;SDS011;61166;54.228;37.632;2023-01-09T14:13:14;30.08;;;13.32;;
72974;SDS011;61166;54.228;37.632;2023-01-09T14:16:14;16.67;;;6.13;;
72974;SDS011;61166;54.228;37.632;2023-01-09T14:18:54;29.38;;;14.95;;
72974;SDS011;61166;54.228;37.632;2023-01-09T14:21:43;19.55;;;7.05;;
72974;SDS011;61166;54.228;37.632;2023-01-09T14:24:27;27.43;;;10.83;;
72974;SDS011;61166;54.228;37.632;2023-01-09T14:26:56;23.90;;;9.32;;
72974;SDS011;61166;54.228;37.632;2023-01-09T14:34:57;23.43;;;11.07;;
72974;SDS011;61166;54.228;37.632;2023-01-09T14:37:36;17.85;;;8.15;;
72974;SDS011;61166;54.228;37.632;2023-01-09T14:40:06;17.92;;;7.78;;
72974;SDS011;61166;54.228;37.632;2023-01-09T14:42:42;15.13;;;7.32;;
72974;SDS011;61166;54.228;37.632;2023-01-09T14:45:15;26.90;;;13.60;;
72974;SDS011;61166;54.228;37.632;2023-01-09T14:47:47;18.65;;;6.57;;
72974;SDS011;61166;54.228;37.632;2023-01-09T14:50:36;16.60;;;6.28;;
72974;SDS011;61166;54.228;37.632;2023-01-09T15:03:40;17.80;;;8.15;;
72974;SDS011;61166;54.228;37.632;2023-01-09T15:08:53;35.42;;;16.17;;
72974;SDS011;61166;54.228;37.632;2023-01-09T15:11:24;27.98;;;13.00;;
72974;SDS011;61166;54.228;37.632;2023-01-09T15:13:53;27.40;;;11.50;;
72974;SDS011;61166;54.228;37.632;2023-01-09T15:16:22;24.03;;;11.80;;
72974;SDS011;61166;54.228;37.632;2023-01-09T15:18:52;24.52;;;11.30;;
72974;SDS011;61166;54.228;37.632;2023-01-09T15:21:24;20.13;;;7.40;;
72974;SDS011;61166;54.228;37.632;2023-01-09T15:23:52;27.63;;;13.32;;
72974;SDS011;61166;54.228;37.632;2023-01-09T15:26:23;24.03;;;8.50;;
72974;SDS011;61166;54.228;37.632;2023-01-09T15:28:53;19.20;;;9.40;;
72974;SDS011;61166;54.228;37.632;2023-01-09T15:31:26;24.52;;;10.52;;
72974;SDS011;61166;54.228;37.632;2023-01-09T15:33:54;19.88;;;8.13;;
72974;SDS011;61166;54.228;37.632;2023-01-09T15:36:22;24.60;;;10.27;;
72974;SDS011;61166;54.228;37.632;2023-01-09T15:38:51;19.92;;;7.20;;
72974;SDS011;61166;54.228;37.632;2023-01-09T15:43:51;19.73;;;7.70;;
72974;SDS011;61166;54.228;37.632;2023-01-09T15:46:18;21.42;;;9.05;;
72974;SDS011;61166;54.228;37.632;2023-01-09T15:48:44;17.80;;;7.75;;
72974;SDS011;61166;54.228;37.632;2023-01-09T15:51:19;16.77;;;7.97;;
72974;SDS011;61166;54.228;37.632;2023-01-09T15:53:46;26.37;;;10.87;;
72974;SDS011;61166;54.228;37.632;2023-01-09T15:56:15;17.83;;;7.25;;
72974;SDS011;61166;54.228;37.632;2023-01-09T15:58:52;20.75;;;6.78;;
72974;SDS011;61166;54.228;37.632;2023-01-09T16:01:22;30.77;;;14.63;;
72974;SDS011;61166;54.228;37.632;2023-01-09T16:03:50;22.67;;;10.30;;
72974;SDS011;61166;54.228;37.632;2023-01-09T16:08:48;21.50;;;9.07;;
72974;SDS011;61166;54.228;37.632;2023-01-09T16:14:03;20.92;;;8.52;;
72974;SDS011;61166;54.228;37.632;2023-01-09T16:16:37;21.48;;;9.88;;
72974;SDS011;61166;54.228;37.632;2023-01-09T16:19:27;20.90;;;9.02;;
72974;SDS011;61166;54.228;37.632;2023-01-09T16:21:55;20.43;;;9.33;;
72974;SDS011;61166;54.228;37.632;2023-01-09T16:24:27;23.80;;;11.48;;
72974;SDS011;61166;54.228;37.632;2023-01-09T16:27:38;22.67;;;11.32;;
72974;SDS011;61166;54.228;37.632;2023-01-09T16:29:58;23.27;;;8.40;;
72974;SDS011;61166;54.228;37.632;2023-01-09T16:32:30;21.27;;;9.17;;
72974;SDS011;61166;54.228;37.632;2023-01-09T16:35:03;14.48;;;5.97;;
72974;SDS011;61166;54.228;37.632;2023-01-09T16:37:33;28.13;;;12.82;;
72974;SDS011;61166;54.228;37.632;2023-01-09T16:40:13;23.73;;;11.75;;
72974;SDS011;61166;54.228;37.632;2023-01-09T16:42:43;28.50;;;12.13;;
72974;SDS011;61166;54.228;37.632;2023-01-09T16:45:10;24.65;;;9.48;;
72974;SDS011;61166;54.228;37.632;2023-01-09T16:47:36;22.45;;;11.25;;
72974;SDS011;61166;54.228;37.632;2023-01-09T16:50:03;25.98;;;11.93;;
72974;SDS011;61166;54.228;37.632;2023-01-09T16:52:30;28.57;;;12.27;;